sensor_id;sensor_type;location;lat;lon;timestamp;temperature;humidity
2363;DHT22;64265;51.664;7.626;2023-04-01T00:01:23;21.20;79.90
2363;DHT22;64265;51.664;7.626;2023-04-01T00:03:49;21.20;79.80
2363;DHT22;64265;51.664;7.626;2023-04-01T00:06:17;21.20;79.60
2363;DHT22;64265;51.664;7.626;2023-04-01T00:08:45;21.20;79.60
2363;DHT22;64265;51.664;7.626;2023-04-01T00:11:12;21.10;79.30
2363;DHT22;64265;51.664;7.626;2023-04-01T00:13:39;21.10;79.20
2363;DHT22;64265;51.664;7.626;2023-04-01T00:16:06;21.10;79.20
2363;DHT22;64265;51.664;7.626;2023-04-01T00:18:34;21.10;79.10
2363;DHT22;64265;51.664;7.626;2023-04-01T00:21:01;21.10;78.80
2363;DHT22;64265;51.664;7.626;2023-04-01T00:23:28;21.00;78.70
2363;DHT22;64265;51.664;7.626;2023-04-01T00:25:55;21.00;78.50
2363;DHT22;64265;51.664;7.626;2023-04-01T00:28:21;21.00;78.50
2363;DHT22;64265;51.664;7.626;2023-04-01T00:30:48;21.00;78.40
2363;DHT22;64265;51.664;7.626;2023-04-01T00:33:15;21.00;78.40
2363;DHT22;64265;51.664;7.626;2023-04-01T00:35:44;21.00;78.30
2363;DHT22;64265;51.664;7.626;2023-04-01T00:38:11;20.90;78.20
2363;DHT22;64265;51.664;7.626;2023-04-01T00:40:39;20.90;78.10
2363;DHT22;64265;51.664;7.626;2023-04-01T00:43:11;20.90;78.10
2363;DHT22;64265;51.664;7.626;2023-04-01T00:45:40;20.90;78.00
2363;DHT22;64265;51.664;7.626;2023-04-01T00:48:11;20.90;78.00
2363;DHT22;64265;51.664;7.626;2023-04-01T00:50:42;20.90;78.00
2363;DHT22;64265;51.664;7.626;2023-04-01T00:53:11;20.90;77.80
2363;DHT22;64265;51.664;7.626;2023-04-01T00:55:42;20.90;77.80
2363;DHT22;64265;51.664;7.626;2023-04-01T00:58:14;20.90;77.80
2363;DHT22;64265;51.664;7.626;2023-04-01T01:00:43;20.90;77.80
2363;DHT22;64265;51.664;7.626;2023-04-01T01:03:11;20.90;77.70
2363;DHT22;64265;51.664;7.626;2023-04-01T01:05:52;20.90;77.70
2363;DHT22;64265;51.664;7.626;2023-04-01T01:08:27;20.80;77.50
2363;DHT22;64265;51.664;7.626;2023-04-01T01:10:58;20.80;77.60
2363;DHT22;64265;51.664;7.626;2023-04-01T01:13:28;20.80;77.60
2363;DHT22;64265;51.664;7.626;2023-04-01T01:16:05;20.80;77.50
2363;DHT22;64265;51.664;7.626;2023-04-01T01:18:36;20.80;77.50
2363;DHT22;64265;51.664;7.626;2023-04-01T01:24:29;20.80;77.40
2363;DHT22;64265;51.664;7.626;2023-04-01T01:27:00;20.80;77.30
2363;DHT22;64265;51.664;7.626;2023-04-01T01:35:36;20.70;77.10
2363;DHT22;64265;51.664;7.626;2023-04-01T01:38:06;20.70;77.20
2363;DHT22;64265;51.664;7.626;2023-04-01T01:40:35;20.70;77.20
2363;DHT22;64265;51.664;7.626;2023-04-01T01:43:05;20.70;77.20
2363;DHT22;64265;51.664;7.626;2023-04-01T01:45:35;20.70;77.20
2363;DHT22;64265;51.664;7.626;2023-04-01T01:48:05;20.70;77.90
2363;DHT22;64265;51.664;7.626;2023-04-01T01:50:35;20.70;77.20
2363;DHT22;64265;51.664;7.626;2023-04-01T01:53:04;20.70;77.10
2363;DHT22;64265;51.664;7.626;2023-04-01T01:55:33;20.60;77.00
2363;DHT22;64265;51.664;7.626;2023-04-01T01:58:04;20.60;77.00
2363;DHT22;64265;51.664;7.626;2023-04-01T02:00:32;20.60;77.00
2363;DHT22;64265;51.664;7.626;2023-04-01T02:03:00;20.60;77.70
2363;DHT22;64265;51.664;7.626;2023-04-01T02:05:28;20.60;76.90
2363;DHT22;64265;51.664;7.626;2023-04-01T02:08:01;20.60;76.90
2363;DHT22;64265;51.664;7.626;2023-04-01T02:10:31;20.60;76.90
2363;DHT22;64265;51.664;7.626;2023-04-01T02:13:05;20.60;77.00
2363;DHT22;64265;51.664;7.626;2023-04-01T02:15:37;20.60;76.90
2363;DHT22;64265;51.664;7.626;2023-04-01T02:18:07;20.60;76.90
2363;DHT22;64265;51.664;7.626;2023-04-01T02:20:36;20.60;76.80
2363;DHT22;64265;51.664;7.626;2023-04-01T02:23:07;20.60;76.90
2363;DHT22;64265;51.664;7.626;2023-04-01T02:25:35;20.60;76.80
2363;DHT22;64265;51.664;7.626;2023-04-01T02:28:04;20.60;76.90
2363;DHT22;64265;51.664;7.626;2023-04-01T02:30:34;20.50;76.80
2363;DHT22;64265;51.664;7.626;2023-04-01T02:33:03;20.50;76.70
2363;DHT22;64265;51.664;7.626;2023-04-01T02:35:30;20.50;76.80
2363;DHT22;64265;51.664;7.626;2023-04-01T02:37:59;20.50;76.70
2363;DHT22;64265;51.664;7.626;2023-04-01T02:40:27;20.50;77.40
2363;DHT22;64265;51.664;7.626;2023-04-01T02:42:54;20.50;76.80
2363;DHT22;64265;51.664;7.626;2023-04-01T02:45:20;20.50;76.70
2363;DHT22;64265;51.664;7.626;2023-04-01T02:47:47;20.50;76.70
2363;DHT22;64265;51.664;7.626;2023-04-01T02:50:14;20.50;76.60
2363;DHT22;64265;51.664;7.626;2023-04-01T02:52:40;20.50;76.60
2363;DHT22;64265;51.664;7.626;2023-04-01T02:55:08;20.50;76.70
2363;DHT22;64265;51.664;7.626;2023-04-01T02:57:36;20.50;76.70
2363;DHT22;64265;51.664;7.626;2023-04-01T03:00:04;20.40;76.50
2363;DHT22;64265;51.664;7.626;2023-04-01T03:02:37;20.40;76.40
2363;DHT22;64265;51.664;7.626;2023-04-01T03:05:04;20.40;76.50
2363;DHT22;64265;51.664;7.626;2023-04-01T03:07:31;20.40;76.40
2363;DHT22;64265;51.664;7.626;2023-04-01T03:09:58;20.40;76.50
2363;DHT22;64265;51.664;7.626;2023-04-01T03:12:24;20.40;76.40
2363;DHT22;64265;51.664;7.626;2023-04-01T03:14:52;20.40;76.40
2363;DHT22;64265;51.664;7.626;2023-04-01T03:17:19;20.40;76.50
2363;DHT22;64265;51.664;7.626;2023-04-01T03:19:46;20.40;76.40
2363;DHT22;64265;51.664;7.626;2023-04-01T03:22:12;20.40;76.40
2363;DHT22;64265;51.664;7.626;2023-04-01T03:24:40;20.40;76.40
2363;DHT22;64265;51.664;7.626;2023-04-01T03:27:06;20.40;76.40
2363;DHT22;64265;51.664;7.626;2023-04-01T03:29:33;20.40;76.50
2363;DHT22;64265;51.664;7.626;2023-04-01T03:32:01;20.40;76.40
2363;DHT22;64265;51.664;7.626;2023-04-01T03:34:28;20.40;76.40
2363;DHT22;64265;51.664;7.626;2023-04-01T03:36:54;20.40;76.40
2363;DHT22;64265;51.664;7.626;2023-04-01T03:39:21;20.40;76.40
2363;DHT22;64265;51.664;7.626;2023-04-01T03:41:48;20.30;76.30
2363;DHT22;64265;51.664;7.626;2023-04-01T03:44:15;20.30;76.30
2363;DHT22;64265;51.664;7.626;2023-04-01T03:46:42;20.30;76.30
2363;DHT22;64265;51.664;7.626;2023-04-01T03:49:10;20.30;76.30
2363;DHT22;64265;51.664;7.626;2023-04-01T03:51:37;20.30;76.30
2363;DHT22;64265;51.664;7.626;2023-04-01T03:54:05;20.30;76.40
2363;DHT22;64265;51.664;7.626;2023-04-01T03:56:32;20.30;76.30
2363;DHT22;64265;51.664;7.626;2023-04-01T03:59:01;20.30;76.30
2363;DHT22;64265;51.664;7.626;2023-04-01T04:01:28;20.30;76.40
2363;DHT22;64265;51.664;7.626;2023-04-01T04:03:55;20.30;76.40
2363;DHT22;64265;51.664;7.626;2023-04-01T04:06:24;20.30;76.40
2363;DHT22;64265;51.664;7.626;2023-04-01T04:08:51;20.20;76.20
2363;DHT22;64265;51.664;7.626;2023-04-01T04:11:19;20.20;76.30
2363;DHT22;64265;51.664;7.626;2023-04-01T04:13:46;20.20;76.20
2363;DHT22;64265;51.664;7.626;2023-04-01T04:16:15;20.20;76.30
2363;DHT22;64265;51.664;7.626;2023-04-01T04:18:42;20.20;76.30
2363;DHT22;64265;51.664;7.626;2023-04-01T04:21:12;20.20;76.20
2363;DHT22;64265;51.664;7.626;2023-04-01T04:23:40;20.20;76.20
2363;DHT22;64265;51.664;7.626;2023-04-01T04:26:09;20.20;76.30
2363;DHT22;64265;51.664;7.626;2023-04-01T04:28:37;20.20;76.30
2363;DHT22;64265;51.664;7.626;2023-04-01T04:31:04;20.20;76.20
2363;DHT22;64265;51.664;7.626;2023-04-01T04:33:32;20.20;76.20
2363;DHT22;64265;51.664;7.626;2023-04-01T04:36:01;20.20;76.30
2363;DHT22;64265;51.664;7.626;2023-04-01T04:38:28;20.20;76.20
2363;DHT22;64265;51.664;7.626;2023-04-01T04:40:57;20.20;76.20
2363;DHT22;64265;51.664;7.626;2023-04-01T04:43:23;20.20;76.30
2363;DHT22;64265;51.664;7.626;2023-04-01T04:45:51;20.10;76.10
2363;DHT22;64265;51.664;7.626;2023-04-01T04:48:18;20.10;76.10
2363;DHT22;64265;51.664;7.626;2023-04-01T04:50:46;20.10;76.10
2363;DHT22;64265;51.664;7.626;2023-04-01T04:53:14;20.10;76.10
2363;DHT22;64265;51.664;7.626;2023-04-01T04:55:43;20.10;76.20
2363;DHT22;64265;51.664;7.626;2023-04-01T04:58:11;20.10;76.10
2363;DHT22;64265;51.664;7.626;2023-04-01T05:00:38;20.10;76.80
2363;DHT22;64265;51.664;7.626;2023-04-01T05:03:05;20.10;76.10
2363;DHT22;64265;51.664;7.626;2023-04-01T05:05:32;20.10;76.10
2363;DHT22;64265;51.664;7.626;2023-04-01T05:07:58;20.10;76.10
2363;DHT22;64265;51.664;7.626;2023-04-01T05:10:25;20.10;76.10
2363;DHT22;64265;51.664;7.626;2023-04-01T05:12:52;20.10;76.10
2363;DHT22;64265;51.664;7.626;2023-04-01T05:15:20;20.10;76.10
2363;DHT22;64265;51.664;7.626;2023-04-01T05:17:47;20.10;76.30
2363;DHT22;64265;51.664;7.626;2023-04-01T05:20:14;20.10;76.40
2363;DHT22;64265;51.664;7.626;2023-04-01T05:22:41;20.10;76.30
2363;DHT22;64265;51.664;7.626;2023-04-01T05:25:08;20.10;76.20
2363;DHT22;64265;51.664;7.626;2023-04-01T05:27:35;20.20;76.30
2363;DHT22;64265;51.664;7.626;2023-04-01T05:30:02;20.20;76.20
2363;DHT22;64265;51.664;7.626;2023-04-01T05:32:32;20.20;76.20
2363;DHT22;64265;51.664;7.626;2023-04-01T05:34:58;20.20;76.20
2363;DHT22;64265;51.664;7.626;2023-04-01T05:37:25;20.20;76.20
2363;DHT22;64265;51.664;7.626;2023-04-01T05:39:52;20.30;76.30
2363;DHT22;64265;51.664;7.626;2023-04-01T05:42:18;20.30;76.20
2363;DHT22;64265;51.664;7.626;2023-04-01T05:44:45;20.30;76.20
2363;DHT22;64265;51.664;7.626;2023-04-01T05:47:12;20.30;76.10
2363;DHT22;64265;51.664;7.626;2023-04-01T05:49:40;20.30;76.10
2363;DHT22;64265;51.664;7.626;2023-04-01T05:52:07;20.30;76.00
2363;DHT22;64265;51.664;7.626;2023-04-01T05:54:34;20.30;76.00
2363;DHT22;64265;51.664;7.626;2023-04-01T05:57:01;20.30;76.00
2363;DHT22;64265;51.664;7.626;2023-04-01T05:59:28;20.30;75.90
2363;DHT22;64265;51.664;7.626;2023-04-01T06:01:56;20.30;75.90
2363;DHT22;64265;51.664;7.626;2023-04-01T06:04:23;20.30;75.90
2363;DHT22;64265;51.664;7.626;2023-04-01T06:06:51;20.30;75.90
2363;DHT22;64265;51.664;7.626;2023-04-01T06:09:21;20.30;75.90
2363;DHT22;64265;51.664;7.626;2023-04-01T06:12:14;20.30;75.90
2363;DHT22;64265;51.664;7.626;2023-04-01T06:14:50;20.30;75.80
2363;DHT22;64265;51.664;7.626;2023-04-01T06:17:26;20.30;75.80
2363;DHT22;64265;51.664;7.626;2023-04-01T06:20:00;20.40;75.90
2363;DHT22;64265;51.664;7.626;2023-04-01T06:22:49;20.40;75.90
2363;DHT22;64265;51.664;7.626;2023-04-01T06:25:41;20.40;75.90
2363;DHT22;64265;51.664;7.626;2023-04-01T06:28:29;20.40;75.90
2363;DHT22;64265;51.664;7.626;2023-04-01T06:31:05;20.40;75.90
2363;DHT22;64265;51.664;7.626;2023-04-01T06:33:44;20.50;76.00
2363;DHT22;64265;51.664;7.626;2023-04-01T06:36:33;20.50;75.90
2363;DHT22;64265;51.664;7.626;2023-04-01T06:39:17;20.50;75.80
2363;DHT22;64265;51.664;7.626;2023-04-01T06:42:04;20.50;75.80
2363;DHT22;64265;51.664;7.626;2023-04-01T06:44:45;20.50;75.70
2363;DHT22;64265;51.664;7.626;2023-04-01T06:47:27;20.60;75.80
2363;DHT22;64265;51.664;7.626;2023-04-01T06:50:00;20.60;75.70
2363;DHT22;64265;51.664;7.626;2023-04-01T06:52:38;20.60;75.70
2363;DHT22;64265;51.664;7.626;2023-04-01T06:55:23;20.60;75.60
2363;DHT22;64265;51.664;7.626;2023-04-01T06:57:55;20.60;75.50
2363;DHT22;64265;51.664;7.626;2023-04-01T07:00:27;20.60;75.60
2363;DHT22;64265;51.664;7.626;2023-04-01T07:02:59;20.60;75.50
2363;DHT22;64265;51.664;7.626;2023-04-01T07:05:31;20.60;75.40
2363;DHT22;64265;51.664;7.626;2023-04-01T07:08:00;20.70;75.50
2363;DHT22;64265;51.664;7.626;2023-04-01T07:10:34;20.70;75.50
2363;DHT22;64265;51.664;7.626;2023-04-01T07:13:05;20.70;75.50
2363;DHT22;64265;51.664;7.626;2023-04-01T07:15:37;20.70;75.50
2363;DHT22;64265;51.664;7.626;2023-04-01T07:18:09;20.70;75.40
2363;DHT22;64265;51.664;7.626;2023-04-01T07:20:38;20.70;75.30
2363;DHT22;64265;51.664;7.626;2023-04-01T07:23:10;20.70;75.30
2363;DHT22;64265;51.664;7.626;2023-04-01T07:25:43;20.70;75.30
2363;DHT22;64265;51.664;7.626;2023-04-01T07:28:13;20.70;75.20
2363;DHT22;64265;51.664;7.626;2023-04-01T07:30:50;20.80;75.40
2363;DHT22;64265;51.664;7.626;2023-04-01T07:33:22;20.80;75.30
2363;DHT22;64265;51.664;7.626;2023-04-01T07:35:55;20.80;75.30
2363;DHT22;64265;51.664;7.626;2023-04-01T07:38:32;20.80;75.10
2363;DHT22;64265;51.664;7.626;2023-04-01T07:41:05;20.80;75.30
2363;DHT22;64265;51.664;7.626;2023-04-01T07:43:51;20.80;75.10
2363;DHT22;64265;51.664;7.626;2023-04-01T07:46:33;20.80;75.10
2363;DHT22;64265;51.664;7.626;2023-04-01T07:49:07;20.80;75.90
2363;DHT22;64265;51.664;7.626;2023-04-01T07:51:42;20.80;75.00
2363;DHT22;64265;51.664;7.626;2023-04-01T07:54:18;20.90;75.30
2363;DHT22;64265;51.664;7.626;2023-04-01T07:56:53;20.90;75.10
2363;DHT22;64265;51.664;7.626;2023-04-01T07:59:26;20.90;75.10
2363;DHT22;64265;51.664;7.626;2023-04-01T08:01:59;20.90;75.10
2363;DHT22;64265;51.664;7.626;2023-04-01T08:04:39;20.90;75.10
2363;DHT22;64265;51.664;7.626;2023-04-01T08:07:11;20.90;75.00
2363;DHT22;64265;51.664;7.626;2023-04-01T08:09:44;20.90;75.00
2363;DHT22;64265;51.664;7.626;2023-04-01T08:12:25;20.90;75.00
2363;DHT22;64265;51.664;7.626;2023-04-01T08:15:03;20.90;75.00
2363;DHT22;64265;51.664;7.626;2023-04-01T08:17:41;20.90;74.90
2363;DHT22;64265;51.664;7.626;2023-04-01T08:20:23;20.90;74.90
2363;DHT22;64265;51.664;7.626;2023-04-01T08:22:56;20.90;74.90
2363;DHT22;64265;51.664;7.626;2023-04-01T08:25:26;20.90;75.50
2363;DHT22;64265;51.664;7.626;2023-04-01T08:27:57;20.90;75.90
2363;DHT22;64265;51.664;7.626;2023-04-01T08:30:33;21.00;76.00
2363;DHT22;64265;51.664;7.626;2023-04-01T08:33:10;21.00;76.20
2363;DHT22;64265;51.664;7.626;2023-04-01T08:35:39;21.00;76.10
2363;DHT22;64265;51.664;7.626;2023-04-01T08:38:12;21.00;76.10
2363;DHT22;64265;51.664;7.626;2023-04-01T08:40:58;21.00;76.00
2363;DHT22;64265;51.664;7.626;2023-04-01T08:47:02;21.00;75.60
2363;DHT22;64265;51.664;7.626;2023-04-01T08:50:08;21.00;75.40
2363;DHT22;64265;51.664;7.626;2023-04-01T08:52:41;21.00;75.20
2363;DHT22;64265;51.664;7.626;2023-04-01T08:55:27;21.00;75.00
2363;DHT22;64265;51.664;7.626;2023-04-01T08:58:11;21.00;74.90
2363;DHT22;64265;51.664;7.626;2023-04-01T09:00:48;21.10;74.90
2363;DHT22;64265;51.664;7.626;2023-04-01T09:06:38;21.10;74.80
2363;DHT22;64265;51.664;7.626;2023-04-01T09:09:39;21.10;74.60
2363;DHT22;64265;51.664;7.626;2023-04-01T09:15:32;21.10;74.50
2363;DHT22;64265;51.664;7.626;2023-04-01T09:18:15;21.10;74.50
2363;DHT22;64265;51.664;7.626;2023-04-01T09:20:57;21.10;74.30
2363;DHT22;64265;51.664;7.626;2023-04-01T09:23:41;21.10;74.50
2363;DHT22;64265;51.664;7.626;2023-04-01T09:26:23;21.10;74.50
2363;DHT22;64265;51.664;7.626;2023-04-01T09:28:55;21.10;74.50
2363;DHT22;64265;51.664;7.626;2023-04-01T09:34:55;21.10;74.60
2363;DHT22;64265;51.664;7.626;2023-04-01T09:37:34;21.10;74.60
2363;DHT22;64265;51.664;7.626;2023-04-01T09:40:18;21.10;74.60
2363;DHT22;64265;51.664;7.626;2023-04-01T09:43:02;21.10;74.70
2363;DHT22;64265;51.664;7.626;2023-04-01T09:45:37;21.10;74.90
2363;DHT22;64265;51.664;7.626;2023-04-01T09:48:24;21.10;75.20
2363;DHT22;64265;51.664;7.626;2023-04-01T09:51:02;21.20;75.30
2363;DHT22;64265;51.664;7.626;2023-04-01T09:53:48;21.20;75.60
2363;DHT22;64265;51.664;7.626;2023-04-01T09:57:01;21.20;75.70
2363;DHT22;64265;51.664;7.626;2023-04-01T10:00:15;21.20;75.80
2363;DHT22;64265;51.664;7.626;2023-04-01T10:03:11;21.30;75.90
2363;DHT22;64265;51.664;7.626;2023-04-01T10:06:09;21.30;75.90
2363;DHT22;64265;51.664;7.626;2023-04-01T10:12:29;21.30;76.00
2363;DHT22;64265;51.664;7.626;2023-04-01T10:15:41;21.30;76.00
2363;DHT22;64265;51.664;7.626;2023-04-01T10:18:37;21.30;76.00
2363;DHT22;64265;51.664;7.626;2023-04-01T10:21:28;21.40;76.10
2363;DHT22;64265;51.664;7.626;2023-04-01T10:24:19;21.40;76.00
2363;DHT22;64265;51.664;7.626;2023-04-01T10:27:08;21.40;76.00
2363;DHT22;64265;51.664;7.626;2023-04-01T10:35:57;21.40;76.00
2363;DHT22;64265;51.664;7.626;2023-04-01T10:38:50;21.40;76.00
2363;DHT22;64265;51.664;7.626;2023-04-01T10:41:44;21.40;76.00
2363;DHT22;64265;51.664;7.626;2023-04-01T10:47:39;21.50;76.20
2363;DHT22;64265;51.664;7.626;2023-04-01T10:50:38;21.50;76.20
2363;DHT22;64265;51.664;7.626;2023-04-01T10:56:32;21.60;76.40
2363;DHT22;64265;51.664;7.626;2023-04-01T11:05:20;21.60;76.20
2363;DHT22;64265;51.664;7.626;2023-04-01T11:08:45;21.70;76.20
2363;DHT22;64265;51.664;7.626;2023-04-01T11:17:33;21.70;76.10
2363;DHT22;64265;51.664;7.626;2023-04-01T11:20:33;21.80;76.20
2363;DHT22;64265;51.664;7.626;2023-04-01T11:23:22;21.80;76.10
2363;DHT22;64265;51.664;7.626;2023-04-01T11:26:13;21.80;76.00
2363;DHT22;64265;51.664;7.626;2023-04-01T11:29:15;21.80;75.90
2363;DHT22;64265;51.664;7.626;2023-04-01T11:31:57;21.80;75.90
2363;DHT22;64265;51.664;7.626;2023-04-01T11:34:50;21.90;75.90
2363;DHT22;64265;51.664;7.626;2023-04-01T11:37:32;21.90;75.80
2363;DHT22;64265;51.664;7.626;2023-04-01T11:40:11;21.90;76.50
2363;DHT22;64265;51.664;7.626;2023-04-01T11:42:45;21.90;75.60
2363;DHT22;64265;51.664;7.626;2023-04-01T11:45:25;21.90;75.60
2363;DHT22;64265;51.664;7.626;2023-04-01T11:51:05;21.90;75.50
2363;DHT22;64265;51.664;7.626;2023-04-01T11:53:44;22.00;75.70
2363;DHT22;64265;51.664;7.626;2023-04-01T11:56:24;22.00;75.70
2363;DHT22;64265;51.664;7.626;2023-04-01T11:59:27;22.00;76.40
2363;DHT22;64265;51.664;7.626;2023-04-01T12:02:08;22.00;75.60
2363;DHT22;64265;51.664;7.626;2023-04-01T12:05:03;22.00;75.60
2363;DHT22;64265;51.664;7.626;2023-04-01T12:07:50;22.00;75.60
2363;DHT22;64265;51.664;7.626;2023-04-01T12:10:21;22.00;75.60
2363;DHT22;64265;51.664;7.626;2023-04-01T12:12:59;22.00;75.60
2363;DHT22;64265;51.664;7.626;2023-04-01T12:15:36;22.10;75.60
2363;DHT22;64265;51.664;7.626;2023-04-01T12:18:15;22.10;75.50
2363;DHT22;64265;51.664;7.626;2023-04-01T12:20:49;22.10;75.40
2363;DHT22;64265;51.664;7.626;2023-04-01T12:23:42;22.10;75.30
2363;DHT22;64265;51.664;7.626;2023-04-01T12:26:35;22.10;75.30
2363;DHT22;64265;51.664;7.626;2023-04-01T12:29:21;22.10;75.20
2363;DHT22;64265;51.664;7.626;2023-04-01T12:31:59;22.10;75.10
2363;DHT22;64265;51.664;7.626;2023-04-01T12:34:43;22.20;75.20
2363;DHT22;64265;51.664;7.626;2023-04-01T12:37:20;22.20;75.20
2363;DHT22;64265;51.664;7.626;2023-04-01T12:39:56;22.20;75.10
2363;DHT22;64265;51.664;7.626;2023-04-01T12:42:51;22.20;75.20
2363;DHT22;64265;51.664;7.626;2023-04-01T12:45:30;22.20;75.00
2363;DHT22;64265;51.664;7.626;2023-04-01T12:48:10;22.20;75.00
2363;DHT22;64265;51.664;7.626;2023-04-01T12:51:02;22.20;75.00
2363;DHT22;64265;51.664;7.626;2023-04-01T12:53:52;22.20;74.90
2363;DHT22;64265;51.664;7.626;2023-04-01T12:56:28;22.20;75.00
2363;DHT22;64265;51.664;7.626;2023-04-01T12:59:19;22.20;74.90
2363;DHT22;64265;51.664;7.626;2023-04-01T13:02:01;22.20;74.80
2363;DHT22;64265;51.664;7.626;2023-04-01T13:04:56;22.20;74.80
2363;DHT22;64265;51.664;7.626;2023-04-01T13:07:39;22.20;74.60
2363;DHT22;64265;51.664;7.626;2023-04-01T13:10:15;22.10;74.50
2363;DHT22;64265;51.664;7.626;2023-04-01T13:12:56;22.00;74.60
2363;DHT22;64265;51.664;7.626;2023-04-01T13:15:30;21.90;74.50
2363;DHT22;64265;51.664;7.626;2023-04-01T13:18:09;21.80;74.30
2363;DHT22;64265;51.664;7.626;2023-04-01T13:20:44;21.70;74.30
2363;DHT22;64265;51.664;7.626;2023-04-01T13:23:25;21.70;74.50
2363;DHT22;64265;51.664;7.626;2023-04-01T13:26:07;21.60;74.40
2363;DHT22;64265;51.664;7.626;2023-04-01T13:28:38;21.60;74.40
2363;DHT22;64265;51.664;7.626;2023-04-01T13:31:12;21.50;74.40
2363;DHT22;64265;51.664;7.626;2023-04-01T13:33:45;21.50;74.70
2363;DHT22;64265;51.664;7.626;2023-04-01T13:36:20;21.50;74.50
2363;DHT22;64265;51.664;7.626;2023-04-01T13:39:05;21.40;74.60
2363;DHT22;64265;51.664;7.626;2023-04-01T13:41:45;21.30;74.70
2363;DHT22;64265;51.664;7.626;2023-04-01T13:44:21;21.30;74.70
2363;DHT22;64265;51.664;7.626;2023-04-01T13:47:12;21.30;75.10
2363;DHT22;64265;51.664;7.626;2023-04-01T13:52:50;21.40;75.10
2363;DHT22;64265;51.664;7.626;2023-04-01T13:55:41;21.50;75.40
2363;DHT22;64265;51.664;7.626;2023-04-01T13:58:43;21.60;75.40
2363;DHT22;64265;51.664;7.626;2023-04-01T14:01:23;21.70;75.40
2363;DHT22;64265;51.664;7.626;2023-04-01T14:04:09;21.70;75.30
2363;DHT22;64265;51.664;7.626;2023-04-01T14:06:49;21.80;75.40
2363;DHT22;64265;51.664;7.626;2023-04-01T14:09:34;21.80;76.10
2363;DHT22;64265;51.664;7.626;2023-04-01T14:12:12;21.80;75.30
2363;DHT22;64265;51.664;7.626;2023-04-01T14:14:53;21.90;75.40
2363;DHT22;64265;51.664;7.626;2023-04-01T14:17:31;21.90;75.30
2363;DHT22;64265;51.664;7.626;2023-04-01T14:20:22;21.90;75.30
2363;DHT22;64265;51.664;7.626;2023-04-01T14:23:08;21.90;75.20
2363;DHT22;64265;51.664;7.626;2023-04-01T14:25:58;21.90;75.10
2363;DHT22;64265;51.664;7.626;2023-04-01T14:28:32;22.00;75.30
2363;DHT22;64265;51.664;7.626;2023-04-01T14:34:15;22.00;75.30
2363;DHT22;64265;51.664;7.626;2023-04-01T14:37:06;22.00;75.20
2363;DHT22;64265;51.664;7.626;2023-04-01T14:39:55;22.00;75.20
2363;DHT22;64265;51.664;7.626;2023-04-01T14:42:43;22.00;75.20
2363;DHT22;64265;51.664;7.626;2023-04-01T14:48:17;22.00;75.20
2363;DHT22;64265;51.664;7.626;2023-04-01T14:50:51;22.00;75.20
2363;DHT22;64265;51.664;7.626;2023-04-01T14:53:27;22.00;75.30
2363;DHT22;64265;51.664;7.626;2023-04-01T14:55:57;22.00;75.30
2363;DHT22;64265;51.664;7.626;2023-04-01T14:58:25;22.00;75.30
2363;DHT22;64265;51.664;7.626;2023-04-01T15:01:07;22.00;75.30
2363;DHT22;64265;51.664;7.626;2023-04-01T15:03:48;22.10;75.30
2363;DHT22;64265;51.664;7.626;2023-04-01T15:09:23;22.10;75.30
2363;DHT22;64265;51.664;7.626;2023-04-01T15:12:02;22.10;75.30
2363;DHT22;64265;51.664;7.626;2023-04-01T15:14:44;22.10;75.20
2363;DHT22;64265;51.664;7.626;2023-04-01T15:17:23;22.20;75.30
2363;DHT22;64265;51.664;7.626;2023-04-01T15:20:11;22.20;75.20
2363;DHT22;64265;51.664;7.626;2023-04-01T15:22:54;22.20;75.20
2363;DHT22;64265;51.664;7.626;2023-04-01T15:25:36;22.20;75.20
2363;DHT22;64265;51.664;7.626;2023-04-01T15:28:10;22.20;75.20
2363;DHT22;64265;51.664;7.626;2023-04-01T15:30:50;22.20;75.20
2363;DHT22;64265;51.664;7.626;2023-04-01T15:36:24;22.20;75.10
2363;DHT22;64265;51.664;7.626;2023-04-01T15:39:00;22.20;75.10
2363;DHT22;64265;51.664;7.626;2023-04-01T15:41:36;22.20;75.20
2363;DHT22;64265;51.664;7.626;2023-04-01T15:44:32;22.20;75.20
2363;DHT22;64265;51.664;7.626;2023-04-01T15:47:08;22.20;75.20
2363;DHT22;64265;51.664;7.626;2023-04-01T15:49:53;22.30;75.20
2363;DHT22;64265;51.664;7.626;2023-04-01T15:52:24;22.30;75.20
2363;DHT22;64265;51.664;7.626;2023-04-01T15:55:19;22.30;75.20
2363;DHT22;64265;51.664;7.626;2023-04-01T15:57:56;22.30;75.20
2363;DHT22;64265;51.664;7.626;2023-04-01T16:00:31;22.30;75.30
2363;DHT22;64265;51.664;7.626;2023-04-01T16:03:16;22.30;76.00
2363;DHT22;64265;51.664;7.626;2023-04-01T16:05:55;22.30;75.20
2363;DHT22;64265;51.664;7.626;2023-04-01T16:08:41;22.30;75.20
2363;DHT22;64265;51.664;7.626;2023-04-01T16:11:18;22.30;75.20
2363;DHT22;64265;51.664;7.626;2023-04-01T16:13:59;22.30;75.10
2363;DHT22;64265;51.664;7.626;2023-04-01T16:16:44;22.40;75.20
2363;DHT22;64265;51.664;7.626;2023-04-01T16:19:26;22.40;75.00
2363;DHT22;64265;51.664;7.626;2023-04-01T16:22:00;22.40;75.00
2363;DHT22;64265;51.664;7.626;2023-04-01T16:24:33;22.30;75.00
2363;DHT22;64265;51.664;7.626;2023-04-01T16:27:05;22.40;75.00
2363;DHT22;64265;51.664;7.626;2023-04-01T16:29:40;22.30;75.00
2363;DHT22;64265;51.664;7.626;2023-04-01T16:32:22;22.30;74.70
2363;DHT22;64265;51.664;7.626;2023-04-01T16:35:02;22.30;74.70
2363;DHT22;64265;51.664;7.626;2023-04-01T16:37:33;22.30;74.70
2363;DHT22;64265;51.664;7.626;2023-04-01T16:40:12;22.30;74.70
2363;DHT22;64265;51.664;7.626;2023-04-01T16:42:48;22.30;74.50
2363;DHT22;64265;51.664;7.626;2023-04-01T16:45:24;22.30;74.60
2363;DHT22;64265;51.664;7.626;2023-04-01T16:47:56;22.30;74.30
2363;DHT22;64265;51.664;7.626;2023-04-01T16:50:26;22.30;74.30
2363;DHT22;64265;51.664;7.626;2023-04-01T16:52:59;22.30;74.20
2363;DHT22;64265;51.664;7.626;2023-04-01T16:55:40;22.30;74.20
2363;DHT22;64265;51.664;7.626;2023-04-01T16:58:10;22.30;74.10
2363;DHT22;64265;51.664;7.626;2023-04-01T17:00:44;22.30;74.10
2363;DHT22;64265;51.664;7.626;2023-04-01T17:03:17;22.30;74.10
2363;DHT22;64265;51.664;7.626;2023-04-01T17:05:58;22.30;74.10
2363;DHT22;64265;51.664;7.626;2023-04-01T17:08:37;22.30;74.00
2363;DHT22;64265;51.664;7.626;2023-04-01T17:11:13;22.30;74.00
2363;DHT22;64265;51.664;7.626;2023-04-01T17:13:46;22.30;74.00
2363;DHT22;64265;51.664;7.626;2023-04-01T17:16:44;22.30;74.00
2363;DHT22;64265;51.664;7.626;2023-04-01T17:19:27;22.30;73.80
2363;DHT22;64265;51.664;7.626;2023-04-01T17:22:04;22.20;73.70
2363;DHT22;64265;51.664;7.626;2023-04-01T17:24:49;22.30;74.60
2363;DHT22;64265;51.664;7.626;2023-04-01T17:27:27;22.20;73.60
2363;DHT22;64265;51.664;7.626;2023-04-01T17:30:06;22.20;73.60
2363;DHT22;64265;51.664;7.626;2023-04-01T17:32:46;22.20;73.60
2363;DHT22;64265;51.664;7.626;2023-04-01T17:35:20;22.20;73.60
2363;DHT22;64265;51.664;7.626;2023-04-01T17:38:01;22.20;74.30
2363;DHT22;64265;51.664;7.626;2023-04-01T17:40:39;22.20;73.60
2363;DHT22;64265;51.664;7.626;2023-04-01T17:43:14;22.20;73.50
2363;DHT22;64265;51.664;7.626;2023-04-01T17:45:47;22.20;73.50
2363;DHT22;64265;51.664;7.626;2023-04-01T17:48:24;22.20;73.50
2363;DHT22;64265;51.664;7.626;2023-04-01T17:51:02;22.20;73.40